Time;durP1;ratioP1;P1;durP2;ratioP2;P2;SDS_P1;SDS_P2;PMS_P1;PMS_P2;Temp;Humidity;BMP_temperature;BMP_pressure;BME280_temperature;BME280_humidity;BME280_pressure;Samples;Min_cycle;Max_cycle;Signal;HPM_P1;HPM_P2
2023/03/10 00:01:31;;;;;;;;;;;6.10;87.00;;;-151.14;100.00;62537.16;5071341;28;19920;-87
2023/03/10 00:03:59;;;;;;;;;;;6.10;87.00;;;-151.14;100.00;62537.16;5054119;28;20120;-87
2023/03/10 00:06:28;;;;;;;;;;;6.10;87.00;;;-151.14;100.00;62537.16;5054301;28;20115;-87
2023/03/10 00:08:58;;;;;;;;;;;6.10;87.00;;;-151.14;100.00;62537.16;5071037;28;19921;-87
2023/03/10 00:11:26;;;;;;;;;;;6.10;87.00;;;-151.14;100.00;62537.16;5072372;28;20131;-87
2023/03/10 00:13:54;;;;;;;;;;;6.10;87.10;;;-151.14;100.00;62537.16;5054239;28;19927;-88
2023/03/10 00:16:22;;;;;;;;;;;6.10;87.10;;;-151.14;100.00;62537.16;5054424;28;19921;-87
2023/03/10 00:18:51;;;;;;;;;;;6.10;87.10;;;-151.14;100.00;62537.16;5070977;28;20116;-87
2023/03/10 00:21:20;;;;;;;;;;;6.20;87.00;;;-151.14;100.00;62537.16;5054476;28;19921;-87
2023/03/10 00:23:47;;;;;;;;;;;6.10;87.10;;;-151.14;100.00;62537.16;5053985;28;19927;-86
2023/03/10 00:26:17;;;;;;;;;;;6.10;87.10;;;-151.14;100.00;62537.16;5070793;28;19921;-88
2023/03/10 00:28:45;;;;;;;;;;;6.10;87.20;;;-151.14;100.00;62537.16;5054251;28;19927;-87
2023/03/10 00:31:14;;;;;;;;;;;6.10;87.20;;;-151.14;100.00;62537.16;5071007;28;19921;-87
2023/03/10 00:33:42;;;;;;;;;;;6.10;87.20;;;-151.14;100.00;62537.16;5053838;28;19931;-88
2023/03/10 00:36:11;;;;;;;;;;;6.10;87.20;;;-151.14;100.00;62537.16;5070725;28;19920;-86
2023/03/10 00:38:39;;;;;;;;;;;6.10;87.20;;;-151.14;100.00;62537.16;5070834;28;19920;-88
2023/03/10 00:41:08;;;;;;;;;;;6.10;87.20;;;-151.14;100.00;62537.16;5070790;28;19927;-88
2023/03/10 00:43:37;;;;;;;;;;;6.10;87.20;;;-151.14;100.00;62537.16;5053462;28;19926;-88
2023/03/10 00:46:05;;;;;;;;;;;6.10;87.20;;;-151.14;100.00;62537.16;5070645;28;20115;-87
2023/03/10 00:48:34;;;;;;;;;;;6.10;87.20;;;-151.14;100.00;62537.16;5071859;28;19920;-87
2023/03/10 00:51:02;;;;;;;;;;;6.10;87.20;;;-151.14;100.00;62537.16;5071726;28;19927;-87
2023/03/10 00:53:30;;;;;;;;;;;6.10;87.20;;;-151.14;100.00;62537.16;5052813;28;19926;-87
2023/03/10 00:55:59;;;;;;;;;;;6.10;87.20;;;-151.14;100.00;62537.16;5070409;28;19920;-87
2023/03/10 00:58:27;;;;;;;;;;;6.10;87.10;;;-151.14;100.00;62537.16;5053799;28;20013;-87
2023/03/10 01:00:56;;;;;;;;;;;6.10;87.00;;;-151.14;100.00;62537.16;5070526;28;19920;-87
2023/03/10 01:03:24;;;;;;;;;;;6.10;87.00;;;-151.14;100.00;62537.16;5053094;28;19920;-87
2023/03/10 01:05:52;;;;;;;;;;;6.10;87.00;;;-151.14;100.00;62537.16;5053363;28;19939;-87
2023/03/10 01:08:20;;;;;;;;;;;6.10;87.00;;;-151.14;100.00;62537.16;5053989;28;19920;-88
2023/03/10 01:10:48;;;;;;;;;;;6.10;87.00;;;-151.14;100.00;62537.16;5070230;28;19920;-88
2023/03/10 01:13:17;;;;;;;;;;;6.10;86.90;;;-151.14;100.00;62537.16;5053058;28;19925;-88
2023/03/10 01:15:46;;;;;;;;;;;6.10;87.00;;;-151.14;100.00;62537.16;5053330;28;19921;-88
2023/03/10 01:18:15;;;;;;;;;;;6.10;86.90;;;-151.14;100.00;62537.16;5053488;28;20211;-88
2023/03/10 01:20:43;;;;;;;;;;;6.10;86.90;;;-151.14;100.00;62537.16;5053476;28;19927;-88
2023/03/10 01:23:13;;;;;;;;;;;6.10;87.00;;;-151.14;100.00;62537.16;5052756;28;19921;-88
2023/03/10 01:25:42;;;;;;;;;;;6.10;86.90;;;-151.14;100.00;62537.16;5070061;28;20208;-88
2023/03/10 01:28:10;;;;;;;;;;;6.10;86.90;;;-151.14;100.00;62537.16;5053421;28;19927;-88
2023/03/10 01:30:38;;;;;;;;;;;6.00;86.80;;;-151.14;100.00;62537.16;5069969;28;20116;-88
2023/03/10 01:33:06;;;;;;;;;;;6.10;86.80;;;187.61;100.00;62537.16;5052582;28;19921;-87
2023/03/10 01:35:36;;;;;;;;;;;6.10;86.80;;;-151.14;100.00;62537.16;5071059;28;19927;-88
2023/03/10 01:38:04;;;;;;;;;;;6.00;86.70;;;-151.14;100.00;62537.16;5069885;28;19926;-87
2023/03/10 01:40:32;;;;;;;;;;;6.00;86.70;;;-151.14;100.00;62537.16;5053115;28;19921;-87
2023/03/10 01:43:32;;;;;;;;;;;6.00;86.70;;;-151.14;100.00;62537.16;5052655;28;19927;-88
2023/03/10 01:46:38;;;;;;;;;;;6.00;86.60;;;-151.14;100.00;62537.16;5052803;28;19924;-87
2023/03/10 01:49:14;;;;;;;;;;;6.00;86.60;;;-151.14;100.00;62537.16;5053116;28;19920;-87
2023/03/10 01:51:45;;;;;;;;;;;6.00;86.70;;;-151.14;100.00;62537.16;5052977;28;19924;-87
2023/03/10 01:54:15;;;;;;;;;;;6.00;86.70;;;-151.14;100.00;62537.16;5052402;28;19920;-87
2023/03/10 01:56:43;;;;;;;;;;;6.10;86.80;;;18.09;100.00;62537.16;5052889;28;19921;-87
2023/03/10 01:59:11;;;;;;;;;;;6.00;86.70;;;-151.14;100.00;62537.16;5069672;28;20208;-87
2023/03/10 02:01:39;;;;;;;;;;;6.00;86.70;;;187.61;100.00;62537.16;5062019;28;19921;-87
2023/03/10 02:04:09;;;;;;;;;;;6.10;86.70;;;-151.14;100.00;62537.16;5032530;28;19927;-87
2023/03/10 02:06:37;;;;;;;;;;;6.00;86.60;;;-151.14;100.00;62537.16;5052734;28;19921;-87
2023/03/10 02:09:06;;;;;;;;;;;6.00;86.50;;;-151.14;100.00;62537.16;5036628;28;19927;-87
2023/03/10 02:11:34;;;;;;;;;;;6.00;86.50;;;-151.14;100.00;62537.16;5036236;28;19921;-87
2023/03/10 02:14:05;;;;;;;;;;;6.00;86.50;;;-151.14;100.00;62537.16;5036031;28;20239;-88
2023/03/10 02:16:33;;;;;;;;;;;6.00;86.50;;;-151.14;100.00;62537.16;5052697;28;20127;-87
2023/03/10 02:19:01;;;;;;;;;;;6.00;86.50;;;-151.14;100.00;62537.16;5054185;28;19921;-87
2023/03/10 02:21:32;;;;;;;;;;;6.00;86.50;;;;;;5052600;28;20213;-87
2023/03/10 02:24:03;;;;;;;;;;;6.00;86.50;;;-151.14;100.00;62537.16;5052014;28;19921;-88
2023/03/10 02:26:36;;;;;;;;;;;6.00;86.50;;;-151.14;100.00;62537.16;5039665;28;19926;-87
2023/03/10 02:29:07;;;;;;;;;;;6.00;86.50;;;-151.14;100.00;62537.16;5055744;28;20111;-87
2023/03/10 02:31:35;;;;;;;;;;;6.00;86.40;;;-151.14;100.00;62537.16;5056123;28;19927;-87
2023/03/10 02:34:05;;;;;;;;;;;6.00;86.40;;;187.61;100.00;62537.16;5071978;28;20204;-87
2023/03/10 02:36:34;;;;;;;;;;;6.00;86.20;;;-151.14;100.00;62537.16;5055823;28;19926;-87
2023/03/10 02:39:02;;;;;;;;;;;6.00;86.20;;;-151.14;100.00;62537.16;5072550;28;19920;-87
2023/03/10 02:41:31;;;;;;;;;;;6.00;86.20;;;-151.14;100.00;62537.16;5072775;28;19920;-87
2023/03/10 02:44:00;;;;;;;;;;;6.00;86.30;;;-151.14;100.00;62537.16;5055263;28;20115;-87
2023/03/10 02:46:31;;;;;;;;;;;6.00;86.30;;;-151.14;100.00;62537.16;5055629;28;20123;-87
2023/03/10 02:48:59;;;;;;;;;;;6.00;86.20;;;-151.14;100.00;62537.16;5072512;28;19920;-87
2023/03/10 02:51:35;;;;;;;;;;;6.00;86.20;;;-151.14;100.00;62537.16;5055505;28;19927;-87
2023/03/10 02:54:08;;;;;;;;;;;6.00;86.20;;;-151.14;100.00;62537.16;5055036;28;19927;-87
2023/03/10 02:56:36;;;;;;;;;;;6.00;86.20;;;-151.14;100.00;62537.16;5055668;28;19920;-88
2023/03/10 02:59:04;;;;;;;;;;;6.00;86.20;;;-151.14;100.00;62537.16;5072494;28;19927;-87
2023/03/10 03:01:34;;;;;;;;;;;6.00;86.30;;;-151.14;100.00;62537.16;5055571;28;19927;-89
2023/03/10 03:04:02;;;;;;;;;;;6.00;86.20;;;-151.14;100.00;62537.16;5055003;28;20241;-87
2023/03/10 03:06:30;;;;;;;;;;;6.00;86.20;;;-151.14;100.00;62537.16;5054952;28;19927;-87
2023/03/10 03:09:00;;;;;;;;;;;6.00;86.20;;;-151.14;100.00;62537.16;5071048;28;20208;-87
2023/03/10 03:11:32;;;;;;;;;;;6.00;86.20;;;-151.14;100.00;62537.16;5071807;28;19920;-88
2023/03/10 03:14:00;;;;;;;;;;;6.00;86.20;;;-151.14;100.00;62537.16;5054810;28;19950;-87
2023/03/10 03:16:29;;;;;;;;;;;6.00;86.30;;;-151.14;100.00;62537.16;5071549;28;19921;-87
2023/03/10 03:19:02;;;;;;;;;;;6.00;86.20;;;-151.14;100.00;62537.16;5072121;28;19921;-87
2023/03/10 03:21:31;;;;;;;;;;;6.00;86.30;;;-151.14;100.00;62537.16;5072106;28;19927;-87
2023/03/10 03:24:00;;;;;;;;;;;6.00;86.20;;;-151.14;100.00;62537.16;5054697;28;19927;-87
2023/03/10 03:26:28;;;;;;;;;;;6.00;86.10;;;-151.14;100.00;62537.16;5055002;28;20212;-87
2023/03/10 03:29:05;;;;;;;;;;;6.00;86.10;;;-151.14;100.00;62537.16;5055142;28;19927;-87
2023/03/10 03:31:35;;;;;;;;;;;6.00;86.20;;;-151.14;100.00;62537.16;5054976;28;20127;-87
2023/03/10 03:34:14;;;;;;;;;;;6.00;86.10;;;-151.14;100.00;62537.16;5054443;28;19926;-87
2023/03/10 03:36:43;;;;;;;;;;;6.00;86.20;;;-151.14;100.00;62537.16;5054968;28;20132;-87
2023/03/10 03:39:16;;;;;;;;;;;6.00;86.40;;;-151.14;100.00;62537.16;5054965;28;19927;-87
2023/03/10 03:41:45;;;;;;;;;;;6.00;86.20;;;-151.14;100.00;62537.16;5054870;28;19927;-87
2023/03/10 03:44:13;;;;;;;;;;;6.00;86.20;;;-151.14;100.00;62537.16;5054230;28;19921;-87
2023/03/10 03:46:41;;;;;;;;;;;6.00;86.10;;;-151.14;100.00;62537.16;5054672;28;19921;-87
2023/03/10 03:49:09;;;;;;;;;;;6.00;86.10;;;-151.14;100.00;62537.16;5054586;28;20116;-87
2023/03/10 03:51:39;;;;;;;;;;;6.00;86.00;;;-151.14;100.00;62537.16;5054704;28;19921;-87
2023/03/10 03:54:07;;;;;;;;;;;6.00;86.10;;;-151.14;100.00;62537.16;5070662;28;19921;-87
2023/03/10 03:56:37;;;;;;;;;;;6.00;86.10;;;-151.14;100.00;62537.16;5054499;28;20120;-87
2023/03/10 03:59:06;;;;;;;;;;;6.00;86.10;;;-151.14;100.00;62537.16;5054633;28;20346;-87
2023/03/10 04:01:34;;;;;;;;;;;6.00;86.10;;;-151.14;100.00;62537.16;5054526;28;20205;-87
2023/03/10 04:04:04;;;;;;;;;;;6.00;86.10;;;-151.14;100.00;62537.16;5070683;28;19920;-87
2023/03/10 04:06:33;;;;;;;;;;;6.00;86.20;;;-151.14;100.00;62537.16;5087736;28;20112;-87
2023/03/10 04:09:02;;;;;;;;;;;5.90;86.10;;;-151.14;100.00;62537.16;5054373;28;19924;-87
2023/03/10 04:11:32;;;;;;;;;;;5.90;86.10;;;-151.14;100.00;62537.16;5054585;28;19920;-87
2023/03/10 04:14:00;;;;;;;;;;;5.90;86.10;;;-151.14;100.00;62537.16;5053767;28;20204;-87
2023/03/10 04:16:28;;;;;;;;;;;5.90;86.10;;;-151.14;100.00;62537.16;5054509;28;19920;-87
2023/03/10 04:18:56;;;;;;;;;;;5.90;86.10;;;-151.14;100.00;62537.16;5054167;28;20127;-87
2023/03/10 04:21:25;;;;;;;;;;;5.90;86.10;;;-151.14;100.00;62537.16;5071020;28;20127;-87
2023/03/10 04:23:55;;;;;;;;;;;5.90;86.20;;;-151.14;100.00;62537.16;5062403;28;19927;-87
2023/03/10 04:26:28;;;;;;;;;;;5.90;86.00;;;-151.14;100.00;62537.16;5050841;28;19920;-87
2023/03/10 04:28:57;;;;;;;;;;;5.90;86.20;;;-151.14;100.00;62537.16;5053013;28;19921;-87
2023/03/10 04:31:25;;;;;;;;;;;5.90;86.20;;;-151.14;100.00;62537.16;5070831;28;19927;-87
2023/03/10 04:33:53;;;;;;;;;;;5.90;86.00;;;187.61;100.00;62537.16;5066855;28;20097;-87
2023/03/10 04:36:21;;;;;;;;;;;5.90;86.10;;;-151.14;100.00;62537.16;5067477;28;19983;-87
2023/03/10 04:38:53;;;;;;;;;;;5.90;86.10;;;4.68;100.00;62537.16;5030727;28;19927;-87
2023/03/10 04:41:24;;;;;;;;;;;5.90;86.10;;;-151.14;100.00;62537.16;5030828;28;20120;-87
2023/03/10 04:43:53;;;;;;;;;;;5.90;86.10;;;-151.14;100.00;62537.16;5030065;28;19936;-87
2023/03/10 04:46:21;;;;;;;;;;;5.90;86.20;;;-151.14;100.00;62537.16;5014197;28;20120;-87
2023/03/10 04:48:50;;;;;;;;;;;5.90;86.30;;;-151.14;100.00;62537.16;5047349;28;19928;-87
2023/03/10 04:51:18;;;;;;;;;;;5.90;86.20;;;-151.14;100.00;62537.16;5030638;28;19928;-87
2023/03/10 04:53:49;;;;;;;;;;;5.90;86.10;;;-151.14;100.00;62537.16;5013594;28;19927;-87
2023/03/10 04:56:18;;;;;;;;;;;5.90;86.10;;;-151.14;100.00;62537.16;5013852;28;19927;-87
2023/03/10 04:58:46;;;;;;;;;;;5.90;86.10;;;-151.14;100.00;62537.16;5013879;28;19928;-86
2023/03/10 05:01:15;;;;;;;;;;;5.90;86.10;;;-151.14;100.00;62537.16;5030623;28;19928;-88
2023/03/10 05:03:50;;;;;;;;;;;5.90;86.00;;;-151.14;100.00;62537.16;5029853;28;20315;-87
2023/03/10 05:06:20;;;;;;;;;;;5.90;86.00;;;-151.14;100.00;62537.16;5030327;28;20120;-87
2023/03/10 05:09:03;;;;;;;;;;;5.90;86.10;;;-151.14;100.00;62537.16;5047014;28;19927;-87
2023/03/10 05:11:32;;;;;;;;;;;5.90;86.00;;;-151.14;100.00;62537.16;5030287;28;19927;-87
2023/03/10 05:14:00;;;;;;;;;;;5.90;86.20;;;18.09;100.00;62537.16;5029977;28;19987;-87
2023/03/10 05:16:30;;;;;;;;;;;5.90;85.90;;;187.61;100.00;62537.16;5013905;28;19925;-87
2023/03/10 05:18:58;;;;;;;;;;;5.90;86.00;;;-151.14;100.00;62537.16;5030201;28;19925;-86
2023/03/10 05:21:28;;;;;;;;;;;5.90;86.00;;;-151.14;100.00;62537.16;5030313;28;19928;-87
2023/03/10 05:23:58;;;;;;;;;;;5.90;86.00;;;-151.14;100.00;62537.16;5046286;28;19921;-87
2023/03/10 05:26:26;;;;;;;;;;;6.00;86.00;;;-151.14;100.00;62537.16;5046726;28;19928;-87
2023/03/10 05:28:55;;;;;;;;;;;5.90;86.00;;;-151.14;100.00;62537.16;5013642;28;19927;-88
2023/03/10 05:31:32;;;;;;;;;;;5.90;86.00;;;-151.14;100.00;62537.16;5030251;28;19921;-87
2023/03/10 05:34:06;;;;;;;;;;;6.00;86.00;;;18.10;100.00;62537.16;5046186;28;19922;-87
2023/03/10 05:36:34;;;;;;;;;;;5.90;85.90;;;-151.14;100.00;62537.16;5013751;28;19943;-87
2023/03/10 05:39:05;;;;;;;;;;;6.00;85.80;;;-151.14;100.00;62537.16;5047700;28;20148;-87
2023/03/10 05:41:36;;;;;;;;;;;6.00;85.80;;;-151.14;100.00;62537.16;5050364;28;20216;-87
2023/03/10 05:44:05;;;;;;;;;;;6.00;85.70;;;-151.14;100.00;62537.16;5032824;28;19927;-86
2023/03/10 05:46:37;;;;;;;;;;;6.00;85.70;;;-151.14;100.00;62537.16;5033327;28;19922;-87
2023/03/10 05:49:04;;;;;;;;;;;6.00;85.90;;;-151.14;100.00;62537.16;5050093;28;19927;-87
2023/03/10 05:51:33;;;;;;;;;;;6.00;86.00;;;-151.14;100.00;62537.16;5033342;28;19921;-87
2023/03/10 05:54:04;;;;;;;;;;;6.00;85.90;;;-151.14;100.00;62537.16;5049391;28;20216;-87
2023/03/10 05:56:32;;;;;;;;;;;6.00;86.00;;;-151.14;100.00;62537.16;5033278;28;19921;-87
2023/03/10 05:59:03;;;;;;;;;;;6.00;86.00;;;-151.14;100.00;62537.16;5033128;28;19921;-87
2023/03/10 06:01:34;;;;;;;;;;;6.00;86.00;;;-151.14;100.00;62537.16;5033356;28;19927;-87
2023/03/10 06:04:03;;;;;;;;;;;6.00;86.00;;;-151.14;100.00;62537.16;5049277;28;19928;-87
2023/03/10 06:06:31;;;;;;;;;;;6.00;85.90;;;-151.14;100.00;62537.16;5049777;28;20088;-86
2023/03/10 06:08:59;;;;;;;;;;;6.00;85.90;;;-151.14;100.00;62537.16;5049967;28;19921;-87
2023/03/10 06:11:27;;;;;;;;;;;6.00;85.90;;;-151.14;100.00;62537.16;5032932;28;19921;-87
2023/03/10 06:13:55;;;;;;;;;;;6.00;85.90;;;-151.14;100.00;62537.16;5032457;28;19921;-87
2023/03/10 06:16:23;;;;;;;;;;;6.00;85.90;;;-151.14;100.00;62537.16;5033110;28;19921;-87
2023/03/10 06:18:53;;;;;;;;;;;6.10;86.00;;;-151.14;100.00;62537.16;5033076;28;19927;-87
2023/03/10 06:21:22;;;;;;;;;;;6.10;86.30;;;-151.14;100.00;62537.16;5032963;28;19921;-87
2023/03/10 06:23:51;;;;;;;;;;;6.10;86.40;;;-151.14;100.00;62537.16;5032385;28;19927;-87
2023/03/10 06:26:19;;;;;;;;;;;6.10;86.40;;;-151.14;100.00;62537.16;5032575;28;19927;-87
2023/03/10 06:28:47;;;;;;;;;;;6.20;86.20;;;-151.14;100.00;62537.16;5032947;28;19921;-87
2023/03/10 06:31:16;;;;;;;;;;;6.20;86.10;;;-151.14;100.00;62537.16;5049391;28;20116;-87
2023/03/10 06:33:43;;;;;;;;;;;6.30;86.10;;;-151.14;100.00;62537.16;5048998;28;19921;-87
2023/03/10 06:36:12;;;;;;;;;;;6.30;85.90;;;-151.14;100.00;62537.16;5049345;28;19922;-87
2023/03/10 06:38:41;;;;;;;;;;;6.40;85.80;;;-151.14;100.00;62537.16;5032905;28;19928;-87
2023/03/10 06:41:09;;;;;;;;;;;6.40;85.70;;;-151.14;100.00;62537.16;5043325;28;19927;-87
2023/03/10 06:43:37;;;;;;;;;;;6.40;85.40;;;-151.14;100.00;62537.16;5055252;28;19920;-88
2023/03/10 06:46:06;;;;;;;;;;;6.50;85.40;;;-151.14;100.00;62537.16;5072249;28;19927;-87
2023/03/10 06:48:34;;;;;;;;;;;6.50;85.20;;;5.22;100.00;106994.31;5055780;28;19920;-88
2023/03/10 06:51:02;;;;;;;;;;;6.50;85.00;;;-151.14;100.00;62537.16;5054769;28;19927;-87
2023/03/10 06:53:30;;;;;;;;;;;6.50;85.00;;;-151.14;100.00;62537.16;5055239;28;19921;-87
2023/03/10 06:56:00;;;;;;;;;;;6.50;85.00;;;-151.14;100.00;62537.16;5055678;28;20214;-87
2023/03/10 06:58:28;;;;;;;;;;;6.50;85.00;;;-151.14;100.00;62537.16;5055655;28;19920;-87
2023/03/10 07:00:56;;;;;;;;;;;6.50;85.20;;;-151.14;100.00;62537.16;5055587;28;20022;-87
2023/03/10 07:03:25;;;;;;;;;;;6.60;85.20;;;-151.14;100.00;62537.16;5055022;28;19920;-87
2023/03/10 07:05:53;;;;;;;;;;;6.60;85.10;;;-151.14;100.00;62537.16;5055236;28;19939;-87
2023/03/10 07:08:20;;;;;;;;;;;6.70;85.20;;;5.29;100.00;62537.16;5066322;23;19940;-82
2023/03/10 07:10:48;;;;;;;;;;;6.70;85.30;;;-151.14;100.00;62537.16;5051926;28;19921;-83
2023/03/10 07:13:18;;;;;;;;;;;6.70;85.30;;;-151.14;100.00;62537.16;5051605;28;19927;-83
2023/03/10 07:15:46;;;;;;;;;;;6.80;85.00;;;-151.14;100.00;62537.16;5052085;28;20111;-83
2023/03/10 07:18:14;;;;;;;;;;;6.80;85.70;;;-151.14;100.00;62537.16;5066387;28;19920;-82
2023/03/10 07:20:43;;;;;;;;;;;6.90;84.80;;;;;;5088709;28;19927;-82
2023/03/10 07:23:11;;;;;;;;;;;6.90;84.60;;;-151.14;100.00;62537.16;5071462;28;19927;-82
2023/03/10 07:25:39;;;;;;;;;;;6.90;84.50;;;-151.14;100.00;62537.16;5071901;28;19920;-83
2023/03/10 07:28:07;;;;;;;;;;;7.00;84.40;;;-151.14;100.00;62537.16;5054966;28;19927;-82
2023/03/10 07:30:37;;;;;;;;;;;7.00;84.40;;;-151.14;100.00;62537.16;5055189;28;19951;-82
2023/03/10 07:33:05;;;;;;;;;;;7.00;84.40;;;-151.14;100.00;62537.16;5054696;28;20326;-82
2023/03/10 07:35:33;;;;;;;;;;;7.00;84.40;;;-151.14;100.00;62537.16;5055029;28;20208;-82
2023/03/10 07:38:01;;;;;;;;;;;7.10;84.50;;;-151.14;100.00;62537.16;5055003;28;19920;-82
2023/03/10 07:40:29;;;;;;;;;;;7.10;84.40;;;-151.14;100.00;62537.16;5071715;28;19920;-82
2023/03/10 07:42:57;;;;;;;;;;;7.10;84.40;;;-151.14;100.00;62537.16;5054340;28;19920;-83
2023/03/10 07:45:26;;;;;;;;;;;7.10;84.20;;;-151.14;100.00;62537.16;5071474;28;19927;-82
2023/03/10 07:47:56;;;;;;;;;;;7.20;84.10;;;-151.14;100.00;62537.16;5088184;28;19929;-82
2023/03/10 07:50:24;;;;;;;;;;;7.20;84.10;;;-151.14;100.00;62537.16;5054804;28;19921;-82
2023/03/10 07:52:53;;;;;;;;;;;7.30;84.00;;;-151.14;100.00;62537.16;5087740;28;19935;-82
2023/03/10 07:55:21;;;;;;;;;;;7.30;83.80;;;-151.14;100.00;62537.16;5072316;28;19920;-82
2023/03/10 07:57:49;;;;;;;;;;;7.30;83.70;;;-151.14;100.00;62537.16;5054687;28;19924;-82
2023/03/10 08:00:18;;;;;;;;;;;7.30;83.70;;;-151.14;100.00;62537.16;5071494;28;19920;-83
2023/03/10 08:02:46;;;;;;;;;;;7.30;83.60;;;-151.14;100.00;62537.16;5067124;28;19921;-82
2023/03/10 08:05:15;;;;;;;;;;;7.40;83.40;;;-151.14;100.00;62537.16;5051377;28;19927;-82
2023/03/10 08:07:43;;;;;;;;;;;7.40;83.30;;;-151.14;100.00;62537.16;5051006;28;19921;-82
2023/03/10 08:10:12;;;;;;;;;;;7.40;83.10;;;-151.14;100.00;62537.16;5052177;28;19921;-83
2023/03/10 08:12:40;;;;;;;;;;;7.40;83.10;;;6.34;100.00;62537.16;5050449;28;20226;-82
2023/03/10 08:15:10;;;;;;;;;;;7.50;83.10;;;-151.14;100.00;62537.16;5034663;28;20246;-82
2023/03/10 08:17:38;;;;;;;;;;;7.50;83.00;;;-151.14;100.00;62537.16;5041460;28;19921;-82
2023/03/10 08:20:07;;;;;;;;;;;7.50;83.00;;;-151.14;100.00;62537.16;5052047;28;19920;-82
2023/03/10 08:22:36;;;;;;;;;;;7.50;82.70;;;-151.14;100.00;62537.16;5051084;28;19920;-83
2023/03/10 08:25:05;;;;;;;;;;;7.50;82.70;;;-151.14;100.00;62537.16;5034336;28;19921;-82
2023/03/10 08:27:33;;;;;;;;;;;7.60;82.50;;;6.41;100.00;62537.16;5050770;28;19921;-82
2023/03/10 08:30:01;;;;;;;;;;;7.60;82.40;;;-151.14;100.00;62537.16;5050741;28;19921;-82
2023/03/10 08:32:29;;;;;;;;;;;7.60;82.30;;;-151.14;100.00;62537.16;5050635;28;19921;-82
2023/03/10 08:34:57;;;;;;;;;;;7.60;82.40;;;-151.14;100.00;62537.16;5050567;28;19940;-82
2023/03/10 08:37:26;;;;;;;;;;;7.60;82.40;;;-151.14;100.00;62537.16;5034038;28;19927;-82
2023/03/10 08:39:56;;;;;;;;;;;7.60;82.40;;;-151.14;100.00;62537.16;5050855;28;20115;-83
2023/03/10 08:42:23;;;;;;;;;;;7.60;82.40;;;-151.14;100.00;62537.16;5050439;28;19927;-83
2023/03/10 08:44:51;;;;;;;;;;;7.50;82.40;;;-151.14;100.00;62537.16;5051148;28;20205;-82
2023/03/10 08:47:19;;;;;;;;;;;7.50;82.50;;;-151.14;100.00;62537.16;5050112;28;19921;-82
2023/03/10 08:49:47;;;;;;;;;;;7.50;82.70;;;-151.14;100.00;62537.16;5034057;28;19927;-83
2023/03/10 08:52:15;;;;;;;;;;;7.40;82.80;;;-151.14;100.00;62537.16;5033682;28;20212;-83
2023/03/10 08:54:43;;;;;;;;;;;7.40;82.80;;;-151.14;100.00;62537.16;5049886;28;19921;-83
2023/03/10 08:57:13;;;;;;;;;;;7.40;83.10;;;-151.14;100.00;62537.16;5050272;28;19925;-83
2023/03/10 08:59:41;;;;;;;;;;;7.40;83.10;;;6.11;100.00;62537.16;5051688;28;20096;-82
2023/03/10 09:02:12;;;;;;;;;;;7.30;83.20;;;6.09;100.00;62537.16;5033699;28;19921;-82
2023/03/10 09:04:40;;;;;;;;;;;7.30;83.10;;;-151.14;100.00;62537.16;5049836;28;19921;-82
2023/03/10 09:07:08;;;;;;;;;;;7.30;83.20;;;-151.14;100.00;62537.16;5050195;28;19920;-82
2023/03/10 09:09:36;;;;;;;;;;;7.30;83.30;;;-151.14;100.00;62537.16;5067029;28;19921;-82
2023/03/10 09:12:05;;;;;;;;;;;7.30;83.40;;;-151.14;100.00;62537.16;5033786;28;19928;-83
2023/03/10 09:14:35;;;;;;;;;;;7.30;83.60;;;-151.14;100.00;62537.16;5066048;28;19929;-83
2023/03/10 09:17:03;;;;;;;;;;;7.20;83.60;;;-151.14;100.00;62537.16;5033494;28;19929;-82
2023/03/10 09:19:31;;;;;;;;;;;7.20;83.70;;;-151.14;100.00;62537.16;5050359;28;19935;-83
2023/03/10 09:21:59;;;;;;;;;;;7.30;83.80;;;-151.14;100.00;62537.16;5066394;28;19927;-83
2023/03/10 09:24:27;;;;;;;;;;;7.30;83.80;;;6.05;100.00;62537.16;5049534;28;20237;-82
2023/03/10 09:26:55;;;;;;;;;;;7.30;83.80;;;-151.14;100.00;62537.16;5049918;28;19943;-83
2023/03/10 09:29:23;;;;;;;;;;;7.30;83.70;;;-151.14;100.00;62537.16;5050057;28;19921;-83
2023/03/10 09:31:53;;;;;;;;;;;7.30;83.90;;;-151.14;100.00;62537.16;5066661;28;19921;-83
2023/03/10 09:34:21;;;;;;;;;;;7.30;83.90;;;-151.14;100.00;62537.16;5049424;28;19921;-83
2023/03/10 09:36:49;;;;;;;;;;;7.40;83.60;;;-151.14;100.00;62537.16;5066431;28;19921;-83
2023/03/10 09:39:16;;;;;;;;;;;7.40;83.40;;;-151.14;100.00;62537.16;5049969;28;19921;-83
2023/03/10 09:42:14;;;;;;;;;;;7.40;83.40;;;-151.14;100.00;62537.16;5033082;28;19927;-83
2023/03/10 09:44:43;;;;;;;;;;;7.40;84.10;;;6.18;100.00;62537.16;5049482;28;19921;-82
2023/03/10 09:47:28;;;;;;;;;;;7.40;83.50;;;-151.14;100.00;62537.16;5050842;28;19936;-83
2023/03/10 09:50:11;;;;;;;;;;;7.40;83.40;;;6.20;100.00;62537.16;5031721;28;19927;-83
2023/03/10 09:52:42;;;;;;;;;;;7.40;84.40;;;-151.14;100.00;62537.16;5049177;28;19921;-83
2023/03/10 09:55:17;;;;;;;;;;;7.40;83.60;;;-151.14;100.00;62537.16;5049598;28;19921;-83
2023/03/10 09:57:46;;;;;;;;;;;7.50;83.60;;;-151.14;100.00;62537.16;5032890;28;19927;-83
2023/03/10 10:00:20;;;;;;;;;;;7.50;83.50;;;-151.14;100.00;62537.16;5049664;28;19921;-83
2023/03/10 10:02:50;;;;;;;;;;;7.50;83.60;;;-151.14;100.00;62537.16;5049267;28;19921;-83
2023/03/10 10:05:21;;;;;;;;;;;7.50;83.50;;;-151.14;100.00;62537.16;5049916;28;19921;-83
2023/03/10 10:07:50;;;;;;;;;;;7.50;83.50;;;-151.14;100.00;62537.16;5032661;28;19937;-83
2023/03/10 10:10:19;;;;;;;;;;;7.50;83.40;;;-151.14;100.00;62537.16;5049594;28;19920;-82
2023/03/10 10:12:48;;;;;;;;;;;7.50;83.30;;;-151.14;100.00;62537.16;5048750;28;19921;-82
2023/03/10 10:15:20;;;;;;;;;;;7.50;83.30;;;-151.14;100.00;62537.16;5049557;28;19921;-83
2023/03/10 10:18:04;;;;;;;;;;;7.50;83.30;;;-151.14;100.00;62537.16;5032632;28;20116;-83
2023/03/10 10:20:33;;;;;;;;;;;7.50;84.00;;;-151.14;100.00;62537.16;5032970;28;19921;-83
2023/03/10 10:23:01;;;;;;;;;;;7.50;83.10;;;-151.14;100.00;62537.16;5048851;28;19927;-82
2023/03/10 10:25:30;;;;;;;;;;;7.50;83.20;;;-151.14;100.00;62537.16;5033148;28;19927;-83
2023/03/10 10:27:58;;;;;;;;;;;7.50;83.20;;;-151.14;100.00;62537.16;5052736;28;19921;-83
2023/03/10 10:30:29;;;;;;;;;;;7.50;83.20;;;-151.14;100.00;62537.16;5069522;28;19921;-83
2023/03/10 10:32:59;;;;;;;;;;;7.50;83.30;;;-151.14;100.00;62537.16;5035310;28;20124;-83
2023/03/10 10:35:28;;;;;;;;;;;7.50;83.20;;;-151.14;100.00;62537.16;5052856;28;19942;-83
2023/03/10 10:38:01;;;;;;;;;;;7.50;83.30;;;-151.14;100.00;62537.16;5052562;28;19921;-83
2023/03/10 10:40:32;;;;;;;;;;;7.40;83.20;;;-151.14;100.00;62537.16;5052520;28;19921;-83
2023/03/10 10:43:04;;;;;;;;;;;7.50;83.30;;;-151.14;100.00;62537.16;5053117;28;19921;-83
2023/03/10 10:45:33;;;;;;;;;;;7.40;83.20;;;-151.14;100.00;62537.16;5052719;28;19920;-83
2023/03/10 10:48:03;;;;;;;;;;;7.40;83.20;;;-151.14;100.00;62537.16;5035913;28;19921;-83
2023/03/10 10:50:31;;;;;;;;;;;7.40;83.20;;;-151.14;100.00;62537.16;5035850;28;20119;-83
2023/03/10 10:53:16;;;;;;;;;;;7.40;83.30;;;-151.14;100.00;62537.16;5051946;28;20223;-83
2023/03/10 10:55:45;;;;;;;;;;;7.40;83.30;;;-151.14;100.00;62537.16;5035930;28;19920;-83
2023/03/10 10:58:25;;;;;;;;;;;7.40;83.40;;;-151.14;100.00;62537.16;5051931;28;20230;-83
2023/03/10 11:00:53;;;;;;;;;;;7.40;83.40;;;-151.14;100.00;62537.16;5035748;28;19921;-83
2023/03/10 11:03:27;;;;;;;;;;;7.40;83.40;;;-151.14;100.00;62537.16;5051719;28;19927;-83
2023/03/10 11:05:55;;;;;;;;;;;7.40;84.30;;;-151.14;100.00;62537.16;5068978;28;19921;-82
2023/03/10 11:08:36;;;;;;;;;;;7.40;83.60;;;-151.14;100.00;62537.16;5035306;28;19921;-83
2023/03/10 11:11:17;;;;;;;;;;;7.40;83.60;;;-151.14;100.00;62537.16;5052156;28;20211;-83
2023/03/10 11:13:58;;;;;;;;;;;7.40;83.60;;;-151.14;100.00;62537.16;5051447;28;19920;-83
2023/03/10 11:16:28;;;;;;;;;;;7.30;83.60;;;-151.14;100.00;62537.16;5068945;28;19920;-83